Terminal Aerodrome Forecast
Issued by NWS

Current Version | Previous Version | Text Only | Print | Product List | Glossary On
Versions: 1 2 3 4 5 6 7 8 9 10 11 12 13 14 15 16 17 18 19 20 21 22 23 24 25 26 27 28 29
000
FTAK31 PAFA 291740
TAFAOT
TAF
PAOT 291740Z 2918/3018 30013G23KT P6SM -SHRA BKN025 BKN030 OVC080
     FM292200 30015G26KT P6SM -SHRA OVC025
     FM300600 31014G25KT P6SM VCSH SCT025 OVC050
     FM301200 31014KT P6SM SCT025 OVC050=

USA.gov is the U.S. government's official web portal to all federal, state and local government web resources and services.